AirNav   Duncan Aviation - Near you to keep you flying
 
 1202 users online  

KAMT Alexander Salamon Airport
West Union, Ohio, USA

GOING TO WEST UNION?


FAA INFORMATION EFFECTIVE 26 JANUARY 2023

Location

FAA Identifier: AMT
Lat/Long: 38-51-06.0210N 083-33-57.6260W
38-51.100350N 083-33.960433W
38.8516725,-83.5660072
(estimated)
Elevation: 896 ft. / 273.1 m (surveyed)
Variation: 04W (1985)
From city: 4 miles NW of WEST UNION, OH
Time zone: UTC -5 (UTC -4 during Daylight Saving Time)
Zip code: 45693

Airport Operations

Airport use: Open to the public
Activation date: 03/1972
Control tower: no
ARTCC: INDIANAPOLIS CENTER
FSS: DAYTON FLIGHT SERVICE STATION
NOTAMs facility: DAY (NOTAM-D service available)
Attendance: MON-FRI IREG, ALL SAT-SUN UNATNDD
Wind indicator: lighted
Segmented circle: no
Lights: ACTVT REIL RWY 05 & 23; PAPI RWY 23; MIRL RWY 05/23 - CTAF.
Beacon: white-green (lighted land airport)
Operates sunset to sunrise.

Airport Communications

CTAF/UNICOM: 122.8
  • APCH/DEP SVC PRVDD BY INDIANAPOLIS ARTCC ON FREQS 135.575/290.5 (PORTSMOUTH RCAG).

Nearby radio navigation aids

VOR radial/distance  VOR name  Freq  Var
YRKr299/30.2YORK VORTAC112.8005W
MXQr166/36.4MIDWEST VOR/DME112.9004W
FLMr075/36.9FALMOUTH VOR/DME117.0004W

 
NDB name  Hdg/Dist  Freq  Var  ID
SPORTYS118/33.224504WPWF .--. .-- ..-.
WAVERLY243/35.138506WEOP . --- .--.

Airport Services

Parking: tiedowns

Runway Information

Runway 5/23

Dimensions: 3558 x 65 ft. / 1084 x 20 m
Surface: asphalt, in good condition
Runway edge lights: medium intensity
Runway edge markings: FADED.
RUNWAY 5  RUNWAY 23
Latitude: 38-50.893600N38-51.307073N
Longitude: 083-34.226117W083-33.694735W
Elevation: 882.9 ft.896.0 ft.
Traffic pattern: leftleft
Runway heading: 049 magnetic, 045 true229 magnetic, 225 true
Markings: nonprecision, in poor conditionnonprecision, in poor condition
Visual slope indicator: 4-light PAPI on left (3.30 degrees glide path)
Runway end identifier lights: yesyes
Touchdown point: yes, no lightsyes, no lights
Obstructions: 20 ft. trees, 201 ft. from runway, 215 ft. left of centerline, 1:1 slope to clear
+5 FT FENCE, 0-200 FT DIST, 210 FT L/R; +15-20 FT BRUSH/TREES, 0-200 FT DIST, 215 FT L.
10 ft. brush, 201 ft. from runway, 200 ft. left of centerline, 1:1 slope to clear
+5 FT FENCE, 0-200 FT DIST, 200 FT L; +5-15 FT BRUSH, 0-200 FT DIST, 200 FT L.

Airport Ownership and Management from official FAA records

Ownership: Publicly-owned
Owner: ADAMS CO ARPT AUTH
ADAMS CO COURTHOUSE, 110 W MAIN ST
WEST UNION, OH 45693-1347
Phone 937-544-3286
Manager: JASON GROOMS
3399 CROSS RD
WINCHESTER, OH 45697-9477
Phone 513-550-2919

Airport Operational Statistics

Aircraft based on the field: 17
Single engine airplanes: 17
    
Aircraft operations: avg 27/week *
95% local general aviation
5% transient general aviation
* for 12-month period ending 07 September 2021

Additional Remarks

TWY MKD WITH REFLECTORS.
DEER, BIRDS, & OTR WILDLIFE ON & INVOF ARPT.
FOR CD CTC INDIANAPOLIS ARTCC AT 317-247-2411.

Instrument Procedures

NOTE: All procedures below are presented as PDF files. If you need a reader for these files, you should download the free Adobe Reader.

NOT FOR NAVIGATION. Please procure official charts for flight.
FAA instrument procedures published for use from 26 January 2023 at 0901Z to 23 February 2023 at 0900z.

 
IAPs - Instrument Approach Procedures
RNAV (GPS) RWY 05   download
RNAV (GPS) RWY 23   download
NOTE: Special Take-Off Minimums/Departure Procedures apply   download (164KB)

Other nearby airports with instrument procedures:

KGEO - Brown County Airport (15 nm W)
KHOC - Highland County Airport (20 nm N)
KFGX - Fleming-Mason Airport (20 nm SW)
I69 - Clermont County Airport (33 nm NW)
KPMH - Greater Portsmouth Regional Airport (34 nm E)
 
Loc | Ops | Rwys | IFR | FBO | Links
Com | Nav | Svcs | Stats | Notes
Area around KAMT (Alexander Salamon Airport)
 
Road maps at: MapQuest Bing Google
 
Aerial photo
WARNING: Photo may not be current or correct
Aerial photo of KAMT (Alexander Salamon Airport)
Photo by David Dietz
Photo taken 09-Jul-2009
looking northeast.

Do you have a better or more recent aerial photo of Alexander Salamon Airport that you would like to share? If so, please send us your photo.

 
Sectional chart

 
Airport distance calculator
Flying to Alexander Salamon Airport? Find the distance to fly.

From to KAMT

Sunrise and sunset
Times for 01-Feb-2023
 Local
(UTC-5)
 Zulu
(UTC)
Morning civil twilight07:1312:13
Sunrise07:4112:41
Sunset17:5422:54
Evening civil twilight18:2223:22

Current date and time
Zulu (UTC)  02-Feb-2023 01:17:33
Local (UTC-5)  01-Feb-2023 20:17:33
 
METAR
KFGX 
20nm SW 
020055Z AUTO 00000KT 10SM CLR M02/M07 A3032 RMK AO2 T10251073
KI69 
33nm NW 
020055Z AUTO 00000KT 10SM CLR M02/M11 A3033 RMK AO2 T10251109
KPMH 
34nm E 
020055Z AUTO 00000KT 10SM CLR M02/M09 RMK AO2 T10201087
KILN 
37nm N 
020054Z AUTO 00000KT 10SM CLR M04/M10 A3031 RMK AO2 SLP299 T10391100
KSYM 
38nm S 
020055Z AUTO 00000KT 10SM FEW024 M02/M04 A3032 RMK AO2
KK62 
40nm W 
020055Z AUTO 00000KT 10SM CLR M03/M07 A3032 RMK AO2
TAF
KILN 
37nm N 
011729Z 0118/0218 VRB03KT P6SM SCT250 FM021600 23008KT P6SM SCT250
KSYM 
38nm S 
012239Z 0123/0218 05006KT P6SM BKN020 FM020300 00000KT P6SM SCT150 FM021600 22006KT P6SM SCT150
KLUK 
42nm W 
012055Z 0121/0218 VRB03KT P6SM BKN250 FM021600 24006KT P6SM SCT250
NOTAMs
Click for the latest NOTAMs
NOTAMs are issued by the DoD/FAA and will open in a separate window not controlled by AirNav.

 

 
 

Would you like to see your business listed on this page?

 If your business provides an interesting product or service to pilots, flight crews, aircraft, or users of the Alexander Salamon Airport, you should consider listing it here.  To start the listing process, click on the button below
 
Add a business
 

Other Pages about Alexander Salamon Airport

www.adamscountyoh.com/airport.asp
 
Update a link
 
Copyright © AirNav, LLC. All rights reserved. Privacy Policy  Contact